This is the latest recevied weather packets stored in our database for station/object OE-11208. If no packets are shown the sender has not sent any weather packets the latest 10 day(s).
| Time | Temp. | Humidity | Pressure | Rain* | Wind** | Luminosity | Snow |
|---|---|---|---|---|---|---|---|
| 1787994322 | 16.11° C | 83% | 1019.1 hPa | 0.25 mm | - | 377 W/m² | - |
| 1787993722 | 15.56° C | 81% | 1019.1 hPa | 0.51 mm | - | 262 W/m² | - |
| 1787992894 | 15° C | 83% | 1019.4 hPa | 0.76 mm | - | 249 W/m² | - |
| 1787992521 | 15° C | 87% | 1019.3 hPa | 0.76 mm | - | 215 W/m² | - |
| 1787991921 | 15° C | 84% | 1019.4 hPa | 1.02 mm | - | 229 W/m² | - |
| 1787991095 | 15° C | 82% | 1019.4 hPa | 1.02 mm | - | 471 W/m² | - |
| 1787990721 | 14.44° C | 88% | 1019.7 hPa | 1.02 mm | - | 134 W/m² | - |
| 1787990122 | 13.89° C | 90% | 1019.7 hPa | 0.76 mm | - | 74 W/m² | - |
| 1787989294 | 13.89° C | 87% | 1019.8 hPa | 0.25 mm | - | 81 W/m² | - |
| 1787988922 | 13.89° C | 88% | 1019.6 hPa | 0 mm | - | 87 W/m² | - |
| 1787988321 | 13.89° C | 88% | 1019.7 hPa | 0 mm | - | 61 W/m² | - |
| 1787987495 | 14.44° C | 86% | 1019.6 hPa | 0 mm | - | 81 W/m² | - |
| 1787987122 | 14.44° C | 84% | 1019.2 hPa | 0 mm | - | 208 W/m² | - |
| 1787986522 | 14.44° C | 82% | 1019 hPa | 0 mm | - | 323 W/m² | - |
| 1787985695 | 13.89° C | 84% | 1019.3 hPa | 0 mm | - | 276 W/m² | - |
| 1787985321 | 13.89° C | 91% | 1019.5 hPa | 0 mm | - | 182 W/m² | - |
| 1787984722 | 13.33° C | 89% | 1019.8 hPa | 0 mm | - | 94 W/m² | - |
| 1787983895 | 13.33° C | 89% | 1019.7 hPa | 0 mm | - | 108 W/m² | - |
| 1787982922 | 13.33° C | 94% | 1019.6 hPa | 0 mm | - | 202 W/m² | - |
| 1787982094 | 12.78° C | 96% | 1019.9 hPa | 0 mm | - | 148 W/m² | - |
| 1787981722 | 12.22° C | 95% | 1019.8 hPa | 0 mm | - | 74 W/m² | - |
| 1787981121 | 12.22° C | 95% | 1019.8 hPa | 0 mm | - | 47 W/m² | - |
| 1787980294 | 12.22° C | 95% | 1019.8 hPa | 0 mm | - | 40 W/m² | - |
| 1787979921 | 12.22° C | 96% | 1019.9 hPa | 0 mm | - | 20 W/m² | - |
| 1787979322 | 12.22° C | 94% | 1019.8 hPa | 0 mm | - | 7 W/m² | - |
* Rain latest hour (hover to see other rain measurements)
** Current wind speed in m/s (hover to see current wind gust speed)